sensor_id;sensor_type;location;lat;lon;timestamp;temperature;humidity
35682;DHT22;21805;51.022;4.782;2023-08-07T06:28:23;15.70;99.90
35682;DHT22;21805;51.022;4.782;2023-08-07T06:39:12;16.30;99.90
35682;DHT22;21805;51.022;4.782;2023-08-07T06:49:57;16.60;99.90
35682;DHT22;21805;51.022;4.782;2023-08-07T06:52:25;16.70;99.90
35682;DHT22;21805;51.022;4.782;2023-08-07T06:54:56;16.80;99.90
35682;DHT22;21805;51.022;4.782;2023-08-07T06:57:31;16.90;99.90
35682;DHT22;21805;51.022;4.782;2023-08-07T07:00:30;17.10;99.90
35682;DHT22;21805;51.022;4.782;2023-08-07T07:03:18;17.20;99.90
35682;DHT22;21805;51.022;4.782;2023-08-07T07:05:50;17.30;99.90
35682;DHT22;21805;51.022;4.782;2023-08-07T07:08:38;17.30;99.90
35682;DHT22;21805;51.022;4.782;2023-08-07T07:11:12;17.40;99.90
35682;DHT22;21805;51.022;4.782;2023-08-07T07:13:58;17.50;99.90
35682;DHT22;21805;51.022;4.782;2023-08-07T07:16:57;17.50;99.90
35682;DHT22;21805;51.022;4.782;2023-08-07T07:19:42;17.70;99.90
35682;DHT22;21805;51.022;4.782;2023-08-07T07:22:17;17.80;99.90
35682;DHT22;21805;51.022;4.782;2023-08-07T07:24:50;18.00;99.90
35682;DHT22;21805;51.022;4.782;2023-08-07T07:27:21;18.10;99.90
35682;DHT22;21805;51.022;4.782;2023-08-07T07:29:48;18.10;99.90
35682;DHT22;21805;51.022;4.782;2023-08-07T07:32:17;18.10;99.90
35682;DHT22;21805;51.022;4.782;2023-08-07T07:35:01;18.30;99.90
35682;DHT22;21805;51.022;4.782;2023-08-07T07:43:13;18.80;99.90
35682;DHT22;21805;51.022;4.782;2023-08-07T07:45:43;18.80;99.90
35682;DHT22;21805;51.022;4.782;2023-08-07T07:48:16;18.60;99.90
35682;DHT22;21805;51.022;4.782;2023-08-07T07:50:42;18.40;99.90
35682;DHT22;21805;51.022;4.782;2023-08-07T07:55:48;18.00;99.90
35682;DHT22;21805;51.022;4.782;2023-08-07T07:58:21;17.90;99.90
35682;DHT22;21805;51.022;4.782;2023-08-07T08:05:58;18.70;99.90
35682;DHT22;21805;51.022;4.782;2023-08-07T08:11:56;19.00;99.90
35682;DHT22;21805;51.022;4.782;2023-08-07T08:14:22;19.10;99.90
35682;DHT22;21805;51.022;4.782;2023-08-07T08:16:48;19.20;99.90
35682;DHT22;21805;51.022;4.782;2023-08-07T08:19:18;19.20;99.90
35682;DHT22;21805;51.022;4.782;2023-08-07T08:21:47;19.20;99.90
35682;DHT22;21805;51.022;4.782;2023-08-07T08:24:35;19.10;99.90
35682;DHT22;21805;51.022;4.782;2023-08-07T08:27:25;19.10;99.90
35682;DHT22;21805;51.022;4.782;2023-08-07T08:43:09;18.40;99.90
35682;DHT22;21805;51.022;4.782;2023-08-07T08:46:06;18.20;99.90
35682;DHT22;21805;51.022;4.782;2023-08-07T08:52:03;18.80;99.90
35682;DHT22;21805;51.022;4.782;2023-08-07T08:55:15;19.30;99.90
35682;DHT22;21805;51.022;4.782;2023-08-07T08:57:47;19.60;99.90
35682;DHT22;21805;51.022;4.782;2023-08-07T09:00:15;19.70;99.90
35682;DHT22;21805;51.022;4.782;2023-08-07T09:02:54;19.70;99.90
35682;DHT22;21805;51.022;4.782;2023-08-07T09:05:25;20.10;99.90
35682;DHT22;21805;51.022;4.782;2023-08-07T09:11:29;20.40;99.90
35682;DHT22;21805;51.022;4.782;2023-08-07T09:17:00;20.70;99.90
35682;DHT22;21805;51.022;4.782;2023-08-07T09:19:51;20.60;99.90
35682;DHT22;21805;51.022;4.782;2023-08-07T09:23:23;20.40;99.90
35682;DHT22;21805;51.022;4.782;2023-08-07T09:26:34;20.70;99.90
35682;DHT22;21805;51.022;4.782;2023-08-07T09:30:11;20.90;99.90
35682;DHT22;21805;51.022;4.782;2023-08-07T09:33:02;21.10;99.90
35682;DHT22;21805;51.022;4.782;2023-08-07T09:44:12;21.50;99.90
35682;DHT22;21805;51.022;4.782;2023-08-07T10:07:47;21.70;99.90
35682;DHT22;21805;51.022;4.782;2023-08-07T10:21:14;22.10;99.90
35682;DHT22;21805;51.022;4.782;2023-08-07T10:39:32;22.30;99.90
35682;DHT22;21805;51.022;4.782;2023-08-07T10:53:37;21.70;99.90
35682;DHT22;21805;51.022;4.782;2023-08-07T11:01:54;22.70;99.90
35682;DHT22;21805;51.022;4.782;2023-08-07T11:04:59;22.90;99.90
35682;DHT22;21805;51.022;4.782;2023-08-07T11:13:21;23.50;99.90
35682;DHT22;21805;51.022;4.782;2023-08-07T11:18:28;23.10;99.90
35682;DHT22;21805;51.022;4.782;2023-08-07T11:20:57;22.80;99.90
35682;DHT22;21805;51.022;4.782;2023-08-07T14:07:14;24.20;99.90
35682;DHT22;21805;51.022;4.782;2023-08-07T14:09:56;24.00;99.90
35682;DHT22;21805;51.022;4.782;2023-08-07T14:12:42;23.90;99.90
35682;DHT22;21805;51.022;4.782;2023-08-07T14:15:23;24.20;99.90
35682;DHT22;21805;51.022;4.782;2023-08-07T14:17:50;24.60;99.90
35682;DHT22;21805;51.022;4.782;2023-08-07T14:20:17;25.30;99.90
35682;DHT22;21805;51.022;4.782;2023-08-07T14:22:44;25.30;99.90
35682;DHT22;21805;51.022;4.782;2023-08-07T14:25:10;25.50;99.90
35682;DHT22;21805;51.022;4.782;2023-08-07T14:27:36;25.30;99.90
35682;DHT22;21805;51.022;4.782;2023-08-07T14:30:02;25.10;99.90
35682;DHT22;21805;51.022;4.782;2023-08-07T14:32:28;25.00;99.90
35682;DHT22;21805;51.022;4.782;2023-08-07T14:34:53;24.80;99.90
35682;DHT22;21805;51.022;4.782;2023-08-07T14:37:19;25.00;99.90
35682;DHT22;21805;51.022;4.782;2023-08-07T14:39:45;24.80;99.90
35682;DHT22;21805;51.022;4.782;2023-08-07T14:42:11;24.70;99.90
35682;DHT22;21805;51.022;4.782;2023-08-07T14:44:36;24.60;99.90
35682;DHT22;21805;51.022;4.782;2023-08-07T14:47:02;24.60;99.90
35682;DHT22;21805;51.022;4.782;2023-08-07T14:49:29;24.50;99.90
35682;DHT22;21805;51.022;4.782;2023-08-07T14:51:55;24.70;99.90
35682;DHT22;21805;51.022;4.782;2023-08-07T14:54:25;24.60;99.90
35682;DHT22;21805;51.022;4.782;2023-08-07T14:57:07;24.90;99.90
35682;DHT22;21805;51.022;4.782;2023-08-07T14:59:58;24.90;99.90
35682;DHT22;21805;51.022;4.782;2023-08-07T15:05:17;24.10;99.90
35682;DHT22;21805;51.022;4.782;2023-08-07T15:10:36;23.60;99.90
35682;DHT22;21805;51.022;4.782;2023-08-07T15:13:10;23.60;99.90
35682;DHT22;21805;51.022;4.782;2023-08-07T15:15:40;23.80;99.90
35682;DHT22;21805;51.022;4.782;2023-08-07T15:18:06;24.20;99.90
35682;DHT22;21805;51.022;4.782;2023-08-07T15:20:54;24.00;99.90
35682;DHT22;21805;51.022;4.782;2023-08-07T15:23:25;23.60;99.90
35682;DHT22;21805;51.022;4.782;2023-08-07T15:26:04;23.30;99.90
35682;DHT22;21805;51.022;4.782;2023-08-07T15:28:41;23.10;99.90
35682;DHT22;21805;51.022;4.782;2023-08-07T15:31:09;23.30;99.90
35682;DHT22;21805;51.022;4.782;2023-08-07T15:36:31;23.20;99.90
35682;DHT22;21805;51.022;4.782;2023-08-07T15:38:58;23.10;99.90
35682;DHT22;21805;51.022;4.782;2023-08-07T15:41:41;23.10;99.90
35682;DHT22;21805;51.022;4.782;2023-08-07T15:44:12;23.20;99.90
35682;DHT22;21805;51.022;4.782;2023-08-07T15:46:44;23.10;99.90
35682;DHT22;21805;51.022;4.782;2023-08-07T15:54:37;23.00;99.90
35682;DHT22;21805;51.022;4.782;2023-08-07T15:57:04;22.80;99.90
35682;DHT22;21805;51.022;4.782;2023-08-07T15:59:30;22.70;99.90
35682;DHT22;21805;51.022;4.782;2023-08-07T16:07:51;22.50;99.90
35682;DHT22;21805;51.022;4.782;2023-08-07T16:10:37;22.40;99.90
35682;DHT22;21805;51.022;4.782;2023-08-07T16:13:04;22.50;99.90
35682;DHT22;21805;51.022;4.782;2023-08-07T16:16:03;22.50;99.90
35682;DHT22;21805;51.022;4.782;2023-08-07T16:18:46;22.40;99.90
35682;DHT22;21805;51.022;4.782;2023-08-07T16:23:40;22.10;99.90
35682;DHT22;21805;51.022;4.782;2023-08-07T16:26:13;22.20;99.90
35682;DHT22;21805;51.022;4.782;2023-08-07T16:36:30;21.70;99.90
35682;DHT22;21805;51.022;4.782;2023-08-07T16:38:57;21.80;99.90
35682;DHT22;21805;51.022;4.782;2023-08-07T16:41:26;21.80;99.90
35682;DHT22;21805;51.022;4.782;2023-08-07T16:43:55;21.80;99.90
35682;DHT22;21805;51.022;4.782;2023-08-07T16:46:24;21.60;99.90
35682;DHT22;21805;51.022;4.782;2023-08-07T16:48:53;21.50;99.90
35682;DHT22;21805;51.022;4.782;2023-08-07T16:51:19;21.40;99.90
35682;DHT22;21805;51.022;4.782;2023-08-07T16:53:46;21.30;99.90
35682;DHT22;21805;51.022;4.782;2023-08-07T16:56:24;21.30;99.90
35682;DHT22;21805;51.022;4.782;2023-08-07T16:58:55;21.10;99.90
35682;DHT22;21805;51.022;4.782;2023-08-07T17:01:21;21.00;99.90
35682;DHT22;21805;51.022;4.782;2023-08-07T17:03:47;21.00;99.90
35682;DHT22;21805;51.022;4.782;2023-08-07T17:06:13;21.00;99.90
35682;DHT22;21805;51.022;4.782;2023-08-07T17:08:40;20.80;99.90
35682;DHT22;21805;51.022;4.782;2023-08-07T17:17:12;20.60;99.90
35682;DHT22;21805;51.022;4.782;2023-08-07T17:19:46;20.50;99.90
35682;DHT22;21805;51.022;4.782;2023-08-07T17:22:22;20.40;99.90
35682;DHT22;21805;51.022;4.782;2023-08-07T17:24:53;20.40;99.90
35682;DHT22;21805;51.022;4.782;2023-08-07T17:27:22;20.30;99.90
35682;DHT22;21805;51.022;4.782;2023-08-07T17:29:49;20.30;99.90
35682;DHT22;21805;51.022;4.782;2023-08-07T17:32:20;20.20;99.90
35682;DHT22;21805;51.022;4.782;2023-08-07T17:34:46;20.20;99.90
35682;DHT22;21805;51.022;4.782;2023-08-07T17:37:15;20.20;99.90
35682;DHT22;21805;51.022;4.782;2023-08-07T17:39:45;20.20;99.90
35682;DHT22;21805;51.022;4.782;2023-08-07T17:42:11;20.10;99.90
35682;DHT22;21805;51.022;4.782;2023-08-07T17:44:42;20.10;99.90
35682;DHT22;21805;51.022;4.782;2023-08-07T17:47:11;20.10;99.90
35682;DHT22;21805;51.022;4.782;2023-08-07T17:49:38;20.10;99.90
35682;DHT22;21805;51.022;4.782;2023-08-07T17:52:11;20.00;99.90
35682;DHT22;21805;51.022;4.782;2023-08-07T17:54:47;20.10;99.90
35682;DHT22;21805;51.022;4.782;2023-08-07T17:57:17;20.00;99.90
35682;DHT22;21805;51.022;4.782;2023-08-07T17:59:46;20.00;99.90
35682;DHT22;21805;51.022;4.782;2023-08-07T18:02:12;19.90;99.90
35682;DHT22;21805;51.022;4.782;2023-08-07T18:04:45;19.80;99.90
35682;DHT22;21805;51.022;4.782;2023-08-07T18:07:32;19.70;99.90
35682;DHT22;21805;51.022;4.782;2023-08-07T18:10:01;19.70;99.90
35682;DHT22;21805;51.022;4.782;2023-08-07T18:12:27;19.70;99.90
35682;DHT22;21805;51.022;4.782;2023-08-07T18:14:59;19.60;99.90
35682;DHT22;21805;51.022;4.782;2023-08-07T18:17:29;19.70;99.90
35682;DHT22;21805;51.022;4.782;2023-08-07T18:20:07;19.60;99.90
35682;DHT22;21805;51.022;4.782;2023-08-07T18:22:38;19.60;99.90
35682;DHT22;21805;51.022;4.782;2023-08-07T18:25:20;19.60;99.90
35682;DHT22;21805;51.022;4.782;2023-08-07T18:28:03;19.60;99.90
35682;DHT22;21805;51.022;4.782;2023-08-07T18:30:42;19.60;99.90
35682;DHT22;21805;51.022;4.782;2023-08-07T18:33:15;19.50;99.90
35682;DHT22;21805;51.022;4.782;2023-08-07T18:36:01;19.60;99.90
35682;DHT22;21805;51.022;4.782;2023-08-07T18:38:43;19.50;99.90
35682;DHT22;21805;51.022;4.782;2023-08-07T18:41:38;19.40;99.90
35682;DHT22;21805;51.022;4.782;2023-08-07T18:47:07;19.50;99.90
35682;DHT22;21805;51.022;4.782;2023-08-07T18:49:57;19.40;99.90
35682;DHT22;21805;51.022;4.782;2023-08-07T18:52:32;19.30;99.90
35682;DHT22;21805;51.022;4.782;2023-08-07T18:55:02;19.30;99.90
35682;DHT22;21805;51.022;4.782;2023-08-07T18:57:30;19.20;99.90
35682;DHT22;21805;51.022;4.782;2023-08-07T18:59:57;19.20;99.90
35682;DHT22;21805;51.022;4.782;2023-08-07T19:02:51;19.20;99.90
35682;DHT22;21805;51.022;4.782;2023-08-07T19:06:20;19.10;99.90
35682;DHT22;21805;51.022;4.782;2023-08-07T19:09:12;19.10;99.90
35682;DHT22;21805;51.022;4.782;2023-08-07T19:12:25;19.10;99.90
35682;DHT22;21805;51.022;4.782;2023-08-07T19:20:57;18.90;99.90
35682;DHT22;21805;51.022;4.782;2023-08-07T19:23:24;18.80;99.90
35682;DHT22;21805;51.022;4.782;2023-08-07T19:25:54;18.70;99.90
35682;DHT22;21805;51.022;4.782;2023-08-07T19:28:37;18.70;99.90
35682;DHT22;21805;51.022;4.782;2023-08-07T19:31:11;18.60;99.90
35682;DHT22;21805;51.022;4.782;2023-08-07T19:34:04;18.60;99.90
35682;DHT22;21805;51.022;4.782;2023-08-07T19:36:45;18.50;99.90
35682;DHT22;21805;51.022;4.782;2023-08-07T19:39:30;18.50;99.90
35682;DHT22;21805;51.022;4.782;2023-08-07T19:41:56;18.40;99.90
35682;DHT22;21805;51.022;4.782;2023-08-07T19:44:46;18.30;99.90
35682;DHT22;21805;51.022;4.782;2023-08-07T19:49:50;18.10;99.90
35682;DHT22;21805;51.022;4.782;2023-08-07T19:52:24;18.10;99.90
35682;DHT22;21805;51.022;4.782;2023-08-07T19:55:33;18.10;99.90
35682;DHT22;21805;51.022;4.782;2023-08-07T19:58:03;18.00;99.90
35682;DHT22;21805;51.022;4.782;2023-08-07T20:00:36;18.00;99.90
35682;DHT22;21805;51.022;4.782;2023-08-07T20:07:10;17.80;99.90
35682;DHT22;21805;51.022;4.782;2023-08-07T20:10:02;17.80;99.90
35682;DHT22;21805;51.022;4.782;2023-08-07T20:13:08;17.70;99.90
35682;DHT22;21805;51.022;4.782;2023-08-07T20:15:40;17.60;99.90
35682;DHT22;21805;51.022;4.782;2023-08-07T20:18:40;17.60;99.90
35682;DHT22;21805;51.022;4.782;2023-08-07T20:21:36;17.50;99.90
35682;DHT22;21805;51.022;4.782;2023-08-07T20:24:33;17.50;99.90
35682;DHT22;21805;51.022;4.782;2023-08-07T20:27:16;17.50;99.90
35682;DHT22;21805;51.022;4.782;2023-08-07T20:29:51;17.40;99.90
35682;DHT22;21805;51.022;4.782;2023-08-07T20:32:21;17.30;99.90
35682;DHT22;21805;51.022;4.782;2023-08-07T20:34:49;17.30;99.90
35682;DHT22;21805;51.022;4.782;2023-08-07T20:37:21;17.30;99.90
35682;DHT22;21805;51.022;4.782;2023-08-07T20:40:08;17.30;99.90
35682;DHT22;21805;51.022;4.782;2023-08-07T20:42:36;17.30;99.90
35682;DHT22;21805;51.022;4.782;2023-08-07T20:45:05;17.30;99.90
35682;DHT22;21805;51.022;4.782;2023-08-07T20:47:38;17.20;99.90
35682;DHT22;21805;51.022;4.782;2023-08-07T20:50:07;17.10;99.90
35682;DHT22;21805;51.022;4.782;2023-08-07T20:52:39;17.10;99.90
35682;DHT22;21805;51.022;4.782;2023-08-07T20:55:11;17.10;99.90
35682;DHT22;21805;51.022;4.782;2023-08-07T20:57:42;17.00;99.90
35682;DHT22;21805;51.022;4.782;2023-08-07T21:00:09;17.00;99.90
35682;DHT22;21805;51.022;4.782;2023-08-07T21:02:50;17.00;99.90
35682;DHT22;21805;51.022;4.782;2023-08-07T21:05:20;16.90;99.90
35682;DHT22;21805;51.022;4.782;2023-08-07T21:07:56;16.90;99.90
35682;DHT22;21805;51.022;4.782;2023-08-07T21:10:22;16.90;99.90
35682;DHT22;21805;51.022;4.782;2023-08-07T21:12:48;16.90;99.90
35682;DHT22;21805;51.022;4.782;2023-08-07T21:15:17;16.90;99.90
35682;DHT22;21805;51.022;4.782;2023-08-07T21:17:43;16.80;99.90
35682;DHT22;21805;51.022;4.782;2023-08-07T21:20:09;16.80;99.90
35682;DHT22;21805;51.022;4.782;2023-08-07T21:22:38;16.70;99.90
35682;DHT22;21805;51.022;4.782;2023-08-07T21:25:05;16.70;99.90
35682;DHT22;21805;51.022;4.782;2023-08-07T21:27:32;16.70;99.90
35682;DHT22;21805;51.022;4.782;2023-08-07T21:29:59;16.70;99.90
35682;DHT22;21805;51.022;4.782;2023-08-07T21:32:27;16.60;99.90
35682;DHT22;21805;51.022;4.782;2023-08-07T21:34:53;16.60;99.90
35682;DHT22;21805;51.022;4.782;2023-08-07T21:37:18;16.60;99.90
35682;DHT22;21805;51.022;4.782;2023-08-07T21:39:47;16.60;99.90
35682;DHT22;21805;51.022;4.782;2023-08-07T21:42:15;16.60;99.90
35682;DHT22;21805;51.022;4.782;2023-08-07T21:44:43;16.50;99.90
35682;DHT22;21805;51.022;4.782;2023-08-07T21:47:10;16.50;99.90
35682;DHT22;21805;51.022;4.782;2023-08-07T21:49:35;16.50;99.90
35682;DHT22;21805;51.022;4.782;2023-08-07T21:52:06;16.50;99.90
35682;DHT22;21805;51.022;4.782;2023-08-07T21:54:34;16.40;99.90
35682;DHT22;21805;51.022;4.782;2023-08-07T21:57:00;16.40;99.90
35682;DHT22;21805;51.022;4.782;2023-08-07T21:59:31;16.50;99.90
35682;DHT22;21805;51.022;4.782;2023-08-07T22:01:59;16.40;99.90
35682;DHT22;21805;51.022;4.782;2023-08-07T22:04:29;16.40;99.90
35682;DHT22;21805;51.022;4.782;2023-08-07T22:06:57;16.40;99.90
35682;DHT22;21805;51.022;4.782;2023-08-07T22:09:26;16.40;99.90
35682;DHT22;21805;51.022;4.782;2023-08-07T22:11:52;16.40;99.90
35682;DHT22;21805;51.022;4.782;2023-08-07T22:14:18;16.30;99.90
35682;DHT22;21805;51.022;4.782;2023-08-07T22:16:47;16.40;99.90
35682;DHT22;21805;51.022;4.782;2023-08-07T22:19:16;16.40;99.90
35682;DHT22;21805;51.022;4.782;2023-08-07T22:21:45;16.30;99.90
35682;DHT22;21805;51.022;4.782;2023-08-07T22:24:14;16.30;99.90
35682;DHT22;21805;51.022;4.782;2023-08-07T22:26:41;16.30;99.90
35682;DHT22;21805;51.022;4.782;2023-08-07T22:29:08;16.20;99.90
35682;DHT22;21805;51.022;4.782;2023-08-07T22:31:35;16.30;99.90
35682;DHT22;21805;51.022;4.782;2023-08-07T22:34:04;16.30;99.90
35682;DHT22;21805;51.022;4.782;2023-08-07T22:36:33;16.20;99.90
35682;DHT22;21805;51.022;4.782;2023-08-07T22:39:01;16.10;99.90
35682;DHT22;21805;51.022;4.782;2023-08-07T22:41:27;16.10;99.90
35682;DHT22;21805;51.022;4.782;2023-08-07T22:43:56;16.10;99.90
35682;DHT22;21805;51.022;4.782;2023-08-07T22:46:24;16.10;99.90
35682;DHT22;21805;51.022;4.782;2023-08-07T22:48:51;16.10;99.90
35682;DHT22;21805;51.022;4.782;2023-08-07T22:51:19;16.10;99.90
35682;DHT22;21805;51.022;4.782;2023-08-07T22:53:45;16.10;99.90
35682;DHT22;21805;51.022;4.782;2023-08-07T22:56:15;16.10;99.90
35682;DHT22;21805;51.022;4.782;2023-08-07T22:58:44;16.10;99.90
35682;DHT22;21805;51.022;4.782;2023-08-07T23:01:13;16.10;99.90
35682;DHT22;21805;51.022;4.782;2023-08-07T23:03:43;16.10;99.90
35682;DHT22;21805;51.022;4.782;2023-08-07T23:06:12;16.10;99.90
35682;DHT22;21805;51.022;4.782;2023-08-07T23:08:39;16.00;99.90
35682;DHT22;21805;51.022;4.782;2023-08-07T23:11:04;16.00;99.90
35682;DHT22;21805;51.022;4.782;2023-08-07T23:13:30;16.00;99.90
35682;DHT22;21805;51.022;4.782;2023-08-07T23:15:57;16.00;99.90
35682;DHT22;21805;51.022;4.782;2023-08-07T23:18:26;16.00;99.90
35682;DHT22;21805;51.022;4.782;2023-08-07T23:20:53;16.00;99.90
35682;DHT22;21805;51.022;4.782;2023-08-07T23:23:23;16.00;99.90
35682;DHT22;21805;51.022;4.782;2023-08-07T23:25:51;16.00;99.90
35682;DHT22;21805;51.022;4.782;2023-08-07T23:28:19;16.00;99.90
35682;DHT22;21805;51.022;4.782;2023-08-07T23:30:51;16.00;99.90
35682;DHT22;21805;51.022;4.782;2023-08-07T23:33:17;16.00;99.90
35682;DHT22;21805;51.022;4.782;2023-08-07T23:35:46;16.00;99.90
35682;DHT22;21805;51.022;4.782;2023-08-07T23:38:13;15.90;99.90
35682;DHT22;21805;51.022;4.782;2023-08-07T23:40:40;15.90;99.90
35682;DHT22;21805;51.022;4.782;2023-08-07T23:43:10;15.90;99.90
35682;DHT22;21805;51.022;4.782;2023-08-07T23:45:40;15.90;99.90
35682;DHT22;21805;51.022;4.782;2023-08-07T23:48:06;15.80;99.90
35682;DHT22;21805;51.022;4.782;2023-08-07T23:50:33;15.90;99.90
35682;DHT22;21805;51.022;4.782;2023-08-07T23:52:59;15.90;99.90
35682;DHT22;21805;51.022;4.782;2023-08-07T23:55:26;15.80;99.90
35682;DHT22;21805;51.022;4.782;2023-08-07T23:57:57;15.80;99.90
